Palu/Mutiara, Indonesia
Current Conditions -  °F | °C
As of 9:30 PM on Sunday 21 Dec 2014 (Local Time) from WALL Reporting Station
Few Clouds Few Clouds  
Wind Chill: 81°   Ceiling: Unl
Heat Index: 87°   Visibility: 5mi
Dew Point: 77°   Wind: 5mph
Humidity: 89%   Direction: 340°NNW
Pressure: 29.74"   Gusts: NA
Location:  0.68°S, 119.73°E
Report Text: WALL 211330Z 34004KT 8000 FEW020 27/25 Q1007 NOSIG
Loading
Personal Weather Stations






























Interactive Weather Map New forecast layout! Learn more

10-Day Weather Forecast

Advertisements
Track Severe Weather on mobile